Terminal Aerodrome Forecast
Issued by NWS Mt. Holly, NJ

Current Version | Previous Version | Text Only | Print | Product List | Glossary On
Versions: 1 2 3 4 5 6 7 8 9 10 11 12 13 14 15 16 17 18 19 20 21 22 23 24 25 26 27 28 29 30 31 32 33 34 35 36 37 38 39 40 41 42 43 44 45 46 47 48 49 50
063
FTUS41 KPHI 260539
TAFABE
TAF
KABE 260539Z 2606/2706 VRB03KT P6SM SCT250
     FM260800 VRB03KT 4SM BR SCT003
      TEMPO 2608/2612 1SM BR BKN003
     FM261400 30006KT P6SM SCT025
     FM261600 29008KT P6SM SCT050
     FM270000 VRB03KT P6SM SCT250=

USA.gov is the U.S. government's official web portal to all federal, state and local government web resources and services.